Map

Track Data

SID SEASON NUMBER BASIN SUBBASIN NAME ISO_TIME NATURE LAT LON WMO_WIND WMO_PRES WMO_AGENCY TRACK_TYPE DIST2LAND LANDFALL IFLAG USA_AGENCY USA_ATCF_ID USA_LAT USA_LON USA_RECORD USA_STATUS USA_WIND USA_PRES USA_SSHS USA_R34_NE USA_R34_SE USA_R34_SW USA_R34_NW USA_R50_NE USA_R50_SE USA_R50_SW USA_R50_NW USA_R64_NE USA_R64_SE USA_R64_SW USA_R64_NW USA_POCI USA_ROCI USA_RMW USA_EYE TOKYO_LAT TOKYO_LON TOKYO_GRADE TOKYO_WIND TOKYO_PRES TOKYO_R50_DIR TOKYO_R50_LONG TOKYO_R50_SHORT TOKYO_R30_DIR TOKYO_R30_LONG TOKYO_R30_SHORT TOKYO_LAND CMA_LAT CMA_LON CMA_CAT CMA_WIND CMA_PRES HKO_LAT HKO_LON HKO_CAT HKO_WIND HKO_PRES NEWDELHI_LAT NEWDELHI_LON NEWDELHI_GRADE NEWDELHI_WIND NEWDELHI_PRES NEWDELHI_CI NEWDELHI_DP NEWDELHI_POCI REUNION_LAT REUNION_LON REUNION_TYPE REUNION_WIND REUNION_PRES REUNION_TNUM REUNION_CI REUNION_RMW REUNION_R34_NE REUNION_R34_SE REUNION_R34_SW REUNION_R34_NW REUNION_R50_NE REUNION_R50_SE REUNION_R50_SW REUNION_R50_NW REUNION_R64_NE REUNION_R64_SE REUNION_R64_SW REUNION_R64_NW BOM_LAT BOM_LON BOM_TYPE BOM_WIND BOM_PRES BOM_TNUM BOM_CI BOM_RMW BOM_R34_NE BOM_R34_SE BOM_R34_SW BOM_R34_NW BOM_R50_NE BOM_R50_SE BOM_R50_SW BOM_R50_NW BOM_R64_NE BOM_R64_SE BOM_R64_SW BOM_R64_NW BOM_ROCI BOM_POCI BOM_EYE BOM_POS_METHOD BOM_PRES_METHOD NADI_LAT NADI_LON NADI_CAT NADI_WIND NADI_PRES WELLINGTON_LAT WELLINGTON_LON WELLINGTON_WIND WELLINGTON_PRES DS824_LAT DS824_LON DS824_STAGE DS824_WIND DS824_PRES TD9636_LAT TD9636_LON TD9636_STAGE TD9636_WIND TD9636_PRES TD9635_LAT TD9635_LON TD9635_WIND TD9635_PRES TD9635_ROCI NEUMANN_LAT NEUMANN_LON NEUMANN_CLASS NEUMANN_WIND NEUMANN_PRES MLC_LAT MLC_LON MLC_CLASS MLC_WIND MLC_PRES USA_GUST BOM_GUST BOM_GUST_PER REUNION_GUST REUNION_GUST_PER USA_SEAHGT USA_SEARAD_NE USA_SEARAD_SE USA_SEARAD_SW USA_SEARAD_NW STORM_SPEED STORM_DIR
1998328N28332 1998 97 NA NA NICOLE 1998-11-24 00:00:00 TS 28.3000 -28.0000 30 1010 hurdat_atl main 1094 1094 O_____________ hurdat_atl AL141998 28.3000 -28.0000 TD 30 1010 -1 11 248
1998328N28332 1998 97 NA NA NICOLE 1998-11-24 03:00:00 TS 28.1030 -28.5604 main 1154 1154 P_____________ AL141998 28.1030 -28.5604 TD 32 1007 -1 10 248
1998328N28332 1998 97 NA NA NICOLE 1998-11-24 06:00:00 TS 27.9000 -29.1000 35 1005 hurdat_atl main 1205 1205 O_____________ hurdat_atl AL141998 27.9000 -29.1000 TS 35 1005 0 10 246
1998328N28332 1998 97 NA NA NICOLE 1998-11-24 09:00:00 TS 27.6922 -29.6074 main 1256 1256 P_____________ AL141998 27.6922 -29.6074 TS 40 1002 0 10 246
1998328N28332 1998 97 NA NA NICOLE 1998-11-24 12:00:00 TS 27.5000 -30.1000 45 1000 hurdat_atl main 1307 1307 O_____________ hurdat_atl AL141998 27.5000 -30.1000 TS 45 1000 0 10 248
1998328N28332 1998 97 NA NA NICOLE 1998-11-24 15:00:00 TS 27.3424 -30.6073 main 1359 1359 P_____________ AL141998 27.3424 -30.6073 TS 52 998 0 9 251
1998328N28332 1998 97 NA NA NICOLE 1998-11-24 18:00:00 TS 27.2000 -31.1000 60 997 hurdat_atl main 1409 1409 O_____________ hurdat_atl AL141998 27.2000 -31.1000 TS 60 997 0 9 251
1998328N28332 1998 97 NA NA NICOLE 1998-11-24 21:00:00 TS 27.0498 -31.5573 main 1462 1462 P_____________ AL141998 27.0498 -31.5573 TS 60 996 0 9 249
1998328N28332 1998 97 NA NA NICOLE 1998-11-25 00:00:00 TS 26.9000 -32.0000 60 995 hurdat_atl main 1502 1502 O_____________ hurdat_atl AL141998 26.9000 -32.0000 TS 60 995 0 9 250
1998328N28332 1998 97 NA NA NICOLE 1998-11-25 03:00:00 TS 26.7499 -32.4574 main 1555 1555 P_____________ AL141998 26.7499 -32.4574 TS 60 994 0 9 250
1998328N28332 1998 97 NA NA NICOLE 1998-11-25 06:00:00 TS 26.6000 -32.9000 60 994 hurdat_atl main 1596 1596 O_____________ hurdat_atl AL141998 26.6000 -32.9000 TS 60 994 0 8 248
1998328N28332 1998 97 NA NA NICOLE 1998-11-25 09:00:00 TS 26.4498 -33.2998 main 1639 1639 P_____________ AL141998 26.4498 -33.2998 TS 57 994 0 8 247
1998328N28332 1998 97 NA NA NICOLE 1998-11-25 12:00:00 TS 26.3000 -33.7000 55 994 hurdat_atl main 1680 1680 O_____________ hurdat_atl AL141998 26.3000 -33.7000 TS 55 994 0 8 249
1998328N28332 1998 97 NA NA NICOLE 1998-11-25 15:00:00 TS 26.1500 -34.1499 main 1722 1724 P_____________ AL141998 26.1500 -34.1499 TS 52 994 0 9 250
1998328N28332 1998 97 NA NA NICOLE 1998-11-25 18:00:00 TS 26.0000 -34.6000 50 994 hurdat_atl main 1775 1775 O_____________ hurdat_atl AL141998 26.0000 -34.6000 TS 50 994 0 8 248
1998328N28332 1998 97 NA NA NICOLE 1998-11-25 21:00:00 TS 25.8422 -34.9924 main 1819 1819 P_____________ AL141998 25.8422 -34.9924 TS 45 996 0 8 247
1998328N28332 1998 97 NA NA NICOLE 1998-11-26 00:00:00 TS 25.7000 -35.4000 40 998 hurdat_atl main 1860 1860 O_____________ hurdat_atl AL141998 25.7000 -35.4000 TS 40 998 0 8 253
1998328N28332 1998 97 NA NA NICOLE 1998-11-26 03:00:00 TS 25.5925 -35.8924 main 1912 1912 P_____________ AL141998 25.5925 -35.8924 TS 37 999 0 9 258
1998328N28332 1998 97 NA NA NICOLE 1998-11-26 06:00:00 TS 25.5000 -36.4000 35 1000 hurdat_atl main 1963 1963 O_____________ hurdat_atl AL141998 25.5000 -36.4000 TS 35 1000 0 9 257
1998328N28332 1998 97 NA NA NICOLE 1998-11-26 09:00:00 TS 25.3922 -36.8500 main 2005 2005 P_____________ AL141998 25.3922 -36.8500 TS 32 1003 -1 8 256
1998328N28332 1998 97 NA NA NICOLE 1998-11-26 12:00:00 TS 25.3000 -37.3000 30 1007 hurdat_atl main 2056 2056 O_____________ hurdat_atl AL141998 25.3000 -37.3000 TD 30 1007 -1 9 260
1998328N28332 1998 97 NA NA NICOLE 1998-11-26 15:00:00 TS 25.2350 -37.8000 main 2108 2108 P_____________ AL141998 25.2350 -37.8000 TD 27 1008 -1 9 264
1998328N28332 1998 97 NA NA NICOLE 1998-11-26 18:00:00 TS 25.2000 -38.3000 25 1009 hurdat_atl main 2156 2156 O_____________ hurdat_atl AL141998 25.2000 -38.3000 TD 25 1009 -1 9 267
1998328N28332 1998 97 NA NA NICOLE 1998-11-26 21:00:00 TS 25.1846 -38.7425 main 2196 2196 P_____________ AL141998 25.1846 -38.7425 TD 25 1009 -1 8 270
1998328N28332 1998 97 NA NA NICOLE 1998-11-27 00:00:00 TS 25.2000 -39.2000 25 1009 hurdat_atl main 2244 2244 O_____________ hurdat_atl AL141998 25.2000 -39.2000 TD 25 1009 -1 9 274
1998328N28332 1998 97 NA NA NICOLE 1998-11-27 03:00:00 TS 25.2422 -39.7125 main 2293 2293 P_____________ AL141998 25.2422 -39.7125 TD 25 1009 -1 10 276
1998328N28332 1998 97 NA NA NICOLE 1998-11-27 06:00:00 TS 25.3000 -40.3000 25 1009 hurdat_atl main 2349 2349 O_____________ hurdat_atl AL141998 25.3000 -40.3000 TD 25 1009 -1 12 275
1998328N28332 1998 97 NA NA NICOLE 1998-11-27 09:00:00 TS 25.3426 -40.9852 main 2418 2418 P_____________ AL141998 25.3426 -40.9852 TD 27 1009 -1 13 275
1998328N28332 1998 97 NA NA NICOLE 1998-11-27 12:00:00 TS 25.4000 -41.7000 30 1009 hurdat_atl main 2484 2484 O_____________ hurdat_atl AL141998 25.4000 -41.7000 TD 30 1009 -1 13 277
1998328N28332 1998 97 NA NA NICOLE 1998-11-27 15:00:00 TS 25.4923 -42.3724 main 2515 2460 P_____________ AL141998 25.4923 -42.3724 TD 35 1007 0 12 280
1998328N28332 1998 97 NA NA NICOLE 1998-11-27 18:00:00 TS 25.6000 -43.0000 40 1005 hurdat_atl main 2460 2414 O_____________ hurdat_atl AL141998 25.6000 -43.0000 TS 40 1005 0 11 280
1998328N28332 1998 97 NA NA NICOLE 1998-11-27 21:00:00 TS 25.6770 -43.5580 main 2405 2359 P_____________ AL141998 25.6770 -43.5580 TS 45 1003 0 10 281
1998328N28332 1998 97 NA NA NICOLE 1998-11-28 00:00:00 TS 25.8000 -44.1000 50 1001 hurdat_atl main 2359 2308 O_____________ hurdat_atl AL141998 25.8000 -44.1000 TS 50 1001 0 11 287
1998328N28332 1998 97 NA NA NICOLE 1998-11-28 03:00:00 TS 26.0051 -44.7150 main 2308 2262 P_____________ AL141998 26.0051 -44.7150 TS 50 1000 0 12 295
1998328N28332 1998 97 NA NA NICOLE 1998-11-28 06:00:00 TS 26.3000 -45.3000 50 1000 hurdat_atl main 2262 2226 O_____________ hurdat_atl AL141998 26.3000 -45.3000 TS 50 1000 0 12 304
1998328N28332 1998 97 NA NA NICOLE 1998-11-28 09:00:00 TS 26.6699 -45.8099 main 2230 2209 P_____________ AL141998 26.6699 -45.8099 TS 50 1000 0 11 315
1998328N28332 1998 97 NA NA NICOLE 1998-11-28 12:00:00 TS 27.1000 -46.2000 50 1000 hurdat_atl main 2209 2199 O_____________ hurdat_atl AL141998 27.1000 -46.2000 TS 50 1000 0 11 326
1998328N28332 1998 97 NA NA NICOLE 1998-11-28 15:00:00 TS 27.5498 -46.4751 main 2199 2149 P_____________ AL141998 27.5498 -46.4751 TS 50 1000 0 10 339
1998328N28332 1998 97 NA NA NICOLE 1998-11-28 18:00:00 TS 28.0000 -46.6000 50 1000 hurdat_atl main 2149 2106 O_____________ hurdat_atl AL141998 28.0000 -46.6000 TS 50 1000 0 8 351
1998328N28332 1998 97 NA NA NICOLE 1998-11-28 21:00:00 TS 28.3773 -46.6248 main 2106 2065 P_____________ AL141998 28.3773 -46.6248 TS 47 1000 0 8 6
1998328N28332 1998 97 NA NA NICOLE 1998-11-29 00:00:00 TS 28.8000 -46.5000 45 1000 hurdat_atl main 2065 2005 O_____________ hurdat_atl AL141998 28.8000 -46.5000 TS 45 1000 0 11 17
1998328N28332 1998 97 NA NA NICOLE 1998-11-29 03:00:00 TS 29.3849 -46.2675 main 2005 1952 P_____________ AL141998 29.3849 -46.2675 TS 45 1000 0 13 24
1998328N28332 1998 97 NA NA NICOLE 1998-11-29 06:00:00 TS 30.0000 -45.9000 45 1000 hurdat_atl main 1952 1910 O_____________ hurdat_atl AL141998 30.0000 -45.9000 TS 45 1000 0 14 32
1998328N28332 1998 97 NA NA NICOLE 1998-11-29 09:00:00 TS 30.5300 -45.4374 main 1913 1873 P_____________ AL141998 30.5300 -45.4374 TS 50 1000 0 13 41
1998328N28332 1998 97 NA NA NICOLE 1998-11-29 12:00:00 TS 31.0000 -44.9000 55 1000 hurdat_atl main 1876 1851 O_____________ hurdat_atl AL141998 31.0000 -44.9000 TS 55 1000 0 13 46
1998328N28332 1998 97 NA NA NICOLE 1998-11-29 15:00:00 TS 31.4148 -44.3643 main 1851 1827 P_____________ AL141998 31.4148 -44.3643 TS 57 997 0 12 50
1998328N28332 1998 97 NA NA NICOLE 1998-11-29 18:00:00 TS 31.8000 -43.8000 60 995 hurdat_atl main 1831 1810 O_____________ hurdat_atl AL141998 31.8000 -43.8000 TS 60 995 0 13 51
1998328N28332 1998 97 NA NA NICOLE 1998-11-29 21:00:00 TS 32.2226 -43.1853 main 1813 1794 P_____________ AL141998 32.2226 -43.1853 TS 62 993 0 13 52
1998328N28332 1998 97 NA NA NICOLE 1998-11-30 00:00:00 TS 32.6000 -42.6000 65 992 hurdat_atl main 1798 1791 O_____________ hurdat_atl AL141998 32.6000 -42.6000 HU 65 992 1 11 54
1998328N28332 1998 97 NA NA NICOLE 1998-11-30 03:00:00 TS 32.8568 -42.1487 main 1790 1784 P_____________ AL141998 32.8568 -42.1487 HU 65 992 1 9 57
1998328N28332 1998 97 NA NA NICOLE 1998-11-30 06:00:00 TS 33.1000 -41.7000 65 992 hurdat_atl main 1788 1778 O_____________ hurdat_atl AL141998 33.1000 -41.7000 HU 65 992 1 10 55
1998328N28332 1998 97 NA NA NICOLE 1998-11-30 09:00:00 TS 33.4500 -41.1228 main 1778 1773 P_____________ AL141998 33.4500 -41.1228 HU 65 989 1 12 55
1998328N28332 1998 97 NA NA NICOLE 1998-11-30 12:00:00 TS 33.8000 -40.5000 65 987 hurdat_atl main 1779 1775 O_____________ hurdat_atl AL141998 33.8000 -40.5000 HU 65 987 1 12 59
1998328N28332 1998 97 NA NA NICOLE 1998-11-30 15:00:00 TS 34.0420 -39.9137 main 1792 1782 P_____________ AL141998 34.0420 -39.9137 HU 67 985 1 11 63
1998328N28332 1998 97 NA NA NICOLE 1998-11-30 18:00:00 TS 34.3000 -39.3000 70 984 hurdat_atl main 1796 1793 O_____________ hurdat_atl AL141998 34.3000 -39.3000 HU 70 984 1 12 61
1998328N28332 1998 97 NA NA NICOLE 1998-11-30 21:00:00 TS 34.5933 -38.6855 main 1803 1799 P_____________ AL141998 34.5933 -38.6855 HU 72 981 1 14 55
1998328N28332 1998 97 NA NA NICOLE 1998-12-01 00:00:00 TS 35.1000 -37.9000 75 979 hurdat_atl main 1805 1803 O_____________ hurdat_atl AL141998 35.1000 -37.9000 HU 75 979 1 21 52
1998328N28332 1998 97 NA NA NICOLE 1998-12-01 03:00:00 TS 35.8578 -36.7081 main 1812 1803 P_____________ AL141998 35.8578 -36.7081 HU 72 979 1 27 46
1998328N28332 1998 97 NA NA NICOLE 1998-12-01 06:00:00 TS 37.0000 -35.5000 70 980 hurdat_atl main 1801 1747 O_____________ hurdat_atl AL141998 37.0000 -35.5000 HU 70 980 1 33 31
1998328N28332 1998 97 NA NA NICOLE 1998-12-01 09:00:00 TS 38.6468 -34.5758 main 1747 1680 P_____________ AL141998 38.6468 -34.5758 HU 65 981 1 36 19
1998328N28332 1998 97 NA NA NICOLE 1998-12-01 12:00:00 TS 40.4000 -34.0000 60 982 hurdat_atl main 1674 1617 O_____________ hurdat_atl AL141998 40.4000 -34.0000 TS 60 982 0 31 10
1998328N28332 1998 97 NA NA NICOLE 1998-12-01 15:00:00 TS 41.6541 -33.8456 main 1611 1534 P_____________ AL141998 41.6541 -33.8456 TS 60 983 0 26 0
1998328N28332 1998 97 NA NA NICOLE 1998-12-01 18:00:00 ET 43.0000 -34.0000 60 985 hurdat_atl main 1529 1435 O_____________ hurdat_atl AL141998 43.0000 -34.0000 EX 60 985 -4 34 356
1998328N28332 1998 97 NA NA NICOLE 1998-12-01 21:00:00 ET 45.0074 -34.1740 main 1432 1360 P_____________ AL141998 45.0074 -34.1740 EX 55 986 -4 40 355
1998328N28332 1998 97 NA NA NICOLE 1998-12-02 00:00:00 ET 47.0000 -34.5000 50 988 hurdat_atl main 1358 1313 O_____________ hurdat_atl AL141998 47.0000 -34.5000 EX 50 988 -4 34 351
1998328N28332 1998 97 NA NA NICOLE 1998-12-02 03:00:00 ET 48.3617 -34.9295 main 1313 1267 P_____________ AL141998 48.3617 -34.9295 EX 50 989 -4 26 345
1998328N28332 1998 97 NA NA NICOLE 1998-12-02 06:00:00 ET 49.5000 -35.5000 50 990 hurdat_atl main 1267 1137 O_____________ hurdat_atl AL141998 49.5000 -35.5000 EX 50 990 -4 25 341
1998328N28332 1998 97 NA NA NICOLE 1998-12-02 09:00:00 ET 50.7140 -36.2017 main 1126 982 P_____________ AL141998 50.7140 -36.2017 EX 50 990 -4 27 339
1998328N28332 1998 97 NA NA NICOLE 1998-12-02 12:00:00 ET 52.0000 -37.0000 50 990 hurdat_atl main 972 O_____________ hurdat_atl AL141998 52.0000 -37.0000 EX 50 990 -4 27 339

About IBTrACS Database

This database is a web-friendly format of International Best Track Archive for Climate Stewardship (IBTrACS), a global best track data archive curated by NOAA dating back to 1842.

Updated: 2021-11-26